createdAt,value
2022-09-06T00:02:15.861Z,101850.31
2022-09-06T00:05:02.596Z,101851.03
2022-09-06T00:07:50.296Z,101850.91
2022-09-06T00:10:37.636Z,101835.16
2022-09-06T00:13:25.551Z,101834.16
2022-09-06T00:16:13.990Z,101834.06
2022-09-06T00:19:00.775Z,101843.81
2022-09-06T00:21:47.599Z,101845.59
2022-09-06T00:24:34.498Z,101841.03
2022-09-06T00:27:21.279Z,101839.34
2022-09-06T00:30:11.079Z,101838.44
2022-09-06T00:32:58.619Z,101836.22
2022-09-06T00:35:47.466Z,101832.94
2022-09-06T00:38:34.369Z,101827.38
2022-09-06T00:41:21.151Z,101822.22
2022-09-06T00:44:07.799Z,101823.09
2022-09-06T00:46:56.616Z,101821.22
2022-09-06T00:49:47.984Z,101831.19
2022-09-06T00:52:35.890Z,101833.81
2022-09-06T00:55:24.195Z,101826.97
2022-09-06T00:58:11.488Z,101823.59
2022-09-06T01:00:57.910Z,101821.97
2022-09-06T01:03:46.100Z,101823.91
2022-09-06T01:06:40.686Z,101820.06
2022-09-06T01:09:41.376Z,101821.91
2022-09-06T01:12:39.871Z,101812.94
2022-09-06T01:15:35.576Z,101813.91
2022-09-06T01:18:33.297Z,101809.22
2022-09-06T01:21:36.502Z,101817.38
2022-09-06T01:24:51.345Z,101821.69
2022-09-06T01:28:28.586Z,101816.06
2022-09-06T01:31:30.987Z,101806.34
2022-09-06T01:34:25.420Z,101812.78
2022-09-06T01:37:15.605Z,101804.09
2022-09-06T01:40:02.719Z,101799.84
2022-09-06T01:42:53.158Z,101800.81
2022-09-06T01:45:51.168Z,101803.53
2022-09-06T01:48:56.454Z,101799.06
2022-09-06T01:51:55.930Z,101801.69
2022-09-06T01:55:03.870Z,101808.97
2022-09-06T01:58:02.731Z,101801.16
2022-09-06T02:00:58.553Z,101808.50
2022-09-06T02:03:54.182Z,101810.38
2022-09-06T02:06:44.982Z,101811.53
2022-09-06T02:09:41.093Z,101810.56
2022-09-06T02:12:31.307Z,101808.72
2022-09-06T02:15:23.675Z,101816.78
2022-09-06T02:18:14.911Z,101808.50
2022-09-06T02:21:05.273Z,101814.94
2022-09-06T02:23:54.802Z,101804.59
2022-09-06T02:26:45.039Z,101805.34
2022-09-06T02:29:32.041Z,101795.28
2022-09-06T02:32:22.243Z,101798.25
2022-09-06T02:35:14.047Z,101800.34
2022-09-06T02:38:01.973Z,101795.78
2022-09-06T02:40:50.053Z,101800.63
2022-09-06T02:43:36.955Z,101800.50
2022-09-06T02:46:24.537Z,101793.59
2022-09-06T02:49:11.180Z,101792.78
2022-09-06T02:51:58.215Z,101780.47
2022-09-06T02:54:46.462Z,101779.84
2022-09-06T02:57:32.846Z,101787.94
2022-09-06T03:00:19.626Z,101784.44
2022-09-06T03:03:07.241Z,101788.25
2022-09-06T03:05:54.903Z,101782.03
2022-09-06T03:08:41.639Z,101787.25
2022-09-06T03:11:29.995Z,101774.81
2022-09-06T03:14:17.169Z,101787.25
2022-09-06T03:17:04.124Z,101794.47
2022-09-06T03:19:50.696Z,101783.16
2022-09-06T03:22:37.865Z,101779.63
2022-09-06T03:25:25.724Z,101780.78
2022-09-06T03:28:14.010Z,101778.34
2022-09-06T03:31:00.632Z,101774.72
2022-09-06T03:33:47.134Z,101781.59
2022-09-06T03:36:33.928Z,101780.00
2022-09-06T03:39:21.378Z,101769.25
2022-09-06T03:42:08.240Z,101757.72
2022-09-06T03:44:55.945Z,101764.69
2022-09-06T03:47:42.897Z,101761.19
2022-09-06T03:50:29.541Z,101761.88
2022-09-06T03:53:17.571Z,101761.09
2022-09-06T03:56:04.993Z,101764.88
2022-09-06T03:58:51.557Z,101764.72
2022-09-06T04:01:39.593Z,101763.78
2022-09-06T04:04:26.224Z,101766.16
2022-09-06T04:07:13.012Z,101764.41
2022-09-06T04:09:59.946Z,101762.56
2022-09-06T04:12:46.613Z,101769.63
2022-09-06T04:15:33.491Z,101770.56
2022-09-06T04:18:22.556Z,101772.44
2022-09-06T04:21:09.374Z,101770.16
2022-09-06T04:23:56.410Z,101768.47
2022-09-06T04:26:43.298Z,101768.28
2022-09-06T04:29:29.956Z,101766.66
2022-09-06T04:32:16.568Z,101768.75
2022-09-06T04:35:05.478Z,101768.69
2022-09-06T04:37:52.037Z,101765.34
2022-09-06T04:40:38.687Z,101761.03
2022-09-06T04:43:25.850Z,101762.09
2022-09-06T04:46:19.126Z,101759.41
2022-09-06T04:49:05.691Z,101759.59
2022-09-06T04:51:53.790Z,101754.13
2022-09-06T04:54:42.726Z,101766.63
2022-09-06T04:57:29.253Z,101757.72
2022-09-06T05:00:16.237Z,101765.34
2022-09-06T05:03:02.638Z,101762.72
2022-09-06T05:05:49.407Z,101764.16
2022-09-06T05:08:39.490Z,101768.75
2022-09-06T05:11:26.522Z,101759.25
2022-09-06T05:14:13.258Z,101755.41
2022-09-06T05:16:59.989Z,101754.72
2022-09-06T05:19:47.989Z,101760.09
2022-09-06T05:22:34.746Z,101756.53
2022-09-06T05:25:22.961Z,101750.19
2022-09-06T05:28:09.721Z,101745.09
2022-09-06T05:31:06.619Z,101746.38
2022-09-06T05:33:53.170Z,101749.09
2022-09-06T05:36:40.176Z,101752.75
2022-09-06T05:39:26.669Z,101752.72
2022-09-06T05:42:19.006Z,101738.03
2022-09-06T05:45:07.025Z,101742.22
2022-09-06T05:47:53.747Z,101738.50
2022-09-06T05:50:40.513Z,101730.13
2022-09-06T05:53:27.493Z,101733.50
2022-09-06T05:56:15.602Z,101731.72
2022-09-06T05:59:04.577Z,101736.94
2022-09-06T06:01:53.171Z,101731.06
2022-09-06T06:04:39.845Z,101723.72
2022-09-06T06:07:26.640Z,101721.88
2022-09-06T06:10:13.461Z,101722.59
2022-09-06T06:13:00.304Z,101726.84
2022-09-06T06:15:48.523Z,101720.22
2022-09-06T06:18:35.277Z,101717.09
2022-09-06T06:21:24.010Z,101725.44
2022-09-06T06:24:10.993Z,101727.53
2022-09-06T06:26:57.796Z,101721.16
2022-09-06T06:29:44.606Z,101721.28
2022-09-06T06:32:32.803Z,101725.53
2022-09-06T06:35:19.746Z,101718.66
2022-09-06T06:38:06.370Z,101719.00
2022-09-06T06:40:57.222Z,101707.38
2022-09-06T06:43:46.699Z,101707.94
2022-09-06T06:46:35.414Z,101701.78
2022-09-06T06:49:23.302Z,101709.13
2022-09-06T06:52:09.993Z,101703.91
2022-09-06T06:54:56.708Z,101700.38
2022-09-06T06:57:43.549Z,101716.34
2022-09-06T07:00:30.526Z,101701.78
2022-09-06T07:03:17.118Z,101708.72
2022-09-06T07:08:54.595Z,101715.31
2022-09-06T07:11:41.405Z,101713.97
2022-09-06T07:14:28.266Z,101712.84
2022-09-06T07:17:15.262Z,101713.59
2022-09-06T07:20:17.126Z,101713.66
2022-09-06T07:26:16.637Z,101708.63
2022-09-06T07:29:04.723Z,101708.44
2022-09-06T07:34:59.618Z,101700.13
2022-09-06T07:37:53.269Z,101715.66
2022-09-06T07:40:41.493Z,101704.13
2022-09-06T07:43:29.591Z,101694.72
2022-09-06T07:46:18.480Z,101699.13
2022-09-06T07:49:05.645Z,101708.41
2022-09-06T07:51:52.428Z,101707.31
2022-09-06T07:54:39.136Z,101696.69
2022-09-06T07:57:27.226Z,101696.59
2022-09-06T08:00:14.470Z,101692.22
2022-09-06T08:03:01.059Z,101693.78
2022-09-06T08:08:58.250Z,101696.19
2022-09-06T08:11:45.413Z,101697.28
2022-09-06T08:14:33.598Z,101693.59
2022-09-06T08:17:20.210Z,101688.31
2022-09-06T08:20:07.798Z,101695.41
2022-09-06T08:22:54.286Z,101693.28
2022-09-06T08:25:40.875Z,101682.84
2022-09-06T08:28:28.920Z,101684.16
2022-09-06T08:31:19.785Z,101678.00
2022-09-06T08:34:07.183Z,101667.06
2022-09-06T08:36:54.103Z,101687.44
2022-09-06T08:39:44.342Z,101672.97
2022-09-06T08:42:32.511Z,101679.56
2022-09-06T08:45:21.835Z,101686.06
2022-09-06T08:48:10.782Z,101682.31
2022-09-06T08:51:13.638Z,101672.78
2022-09-06T08:54:07.407Z,101676.25
2022-09-06T08:57:04.838Z,101663.84
2022-09-06T08:59:58.629Z,101661.38
2022-09-06T09:02:48.560Z,101664.94
2022-09-06T09:05:38.856Z,101664.84
2022-09-06T09:08:29.269Z,101659.78
2022-09-06T09:11:19.185Z,101660.03
2022-09-06T09:14:13.531Z,101658.69
2022-09-06T09:17:04.813Z,101657.81
2022-09-06T09:19:51.422Z,101649.28
2022-09-06T09:22:41.328Z,101646.59
2022-09-06T09:25:30.421Z,101642.50
2022-09-06T09:28:20.047Z,101649.13
2022-09-06T09:31:07.455Z,101646.97
2022-09-06T09:33:54.127Z,101638.78
2022-09-06T09:36:41.245Z,101642.13
2022-09-06T09:39:37.035Z,101628.28
2022-09-06T09:42:28.547Z,101633.03
2022-09-06T09:45:26.694Z,101623.69
2022-09-06T09:48:24.948Z,101620.41
2022-09-06T09:51:26.636Z,101617.25
2022-09-06T09:54:16.182Z,101614.38
2022-09-06T09:57:11.912Z,101602.81
2022-09-06T10:00:01.288Z,101616.44
2022-09-06T10:02:51.063Z,101607.91
2022-09-06T10:05:37.793Z,101602.81
2022-09-06T10:08:26.960Z,101597.91
2022-09-06T10:11:15.048Z,101597.53
2022-09-06T10:14:13.248Z,101603.13
2022-09-06T10:17:01.510Z,101605.72
2022-09-06T10:19:49.019Z,101603.16
2022-09-06T10:22:46.927Z,101598.13
2022-09-06T10:25:40.326Z,101596.75
2022-09-06T10:28:31.284Z,101599.16
2022-09-06T10:31:45.629Z,101592.19
2022-09-06T10:34:51.938Z,101590.72
2022-09-06T10:37:49.042Z,101587.91
2022-09-06T10:40:41.496Z,101590.22
2022-09-06T10:43:36.733Z,101584.34
2022-09-06T10:46:29.283Z,101569.31
2022-09-06T10:49:19.824Z,101584.44
2022-09-06T10:52:11.043Z,101580.50
2022-09-06T10:55:03.914Z,101580.19
2022-09-06T11:01:04.576Z,101564.03
2022-09-06T11:03:55.651Z,101572.22
2022-09-06T11:06:46.590Z,101577.84
2022-09-06T11:09:40.050Z,101554.63
2022-09-06T11:12:36.354Z,101559.34
2022-09-06T11:15:26.580Z,101555.56
2022-09-06T11:18:21.178Z,101561.19
2022-09-06T11:21:44.056Z,101547.09
2022-09-06T11:24:43.782Z,101559.09
2022-09-06T11:27:37.607Z,101548.22
2022-09-06T11:30:25.715Z,101557.22
2022-09-06T11:33:24.847Z,101545.41
2022-09-06T11:36:36.021Z,101550.81
2022-09-06T11:43:03.207Z,101545.53
2022-09-06T11:45:53.157Z,101540.25
2022-09-06T11:49:03.548Z,101543.81
2022-09-06T11:51:50.079Z,101537.31
2022-09-06T11:54:43.982Z,101531.13
2022-09-06T11:57:32.129Z,101510.09
2022-09-06T12:00:21.981Z,101525.81
2022-09-06T12:06:20.230Z,101524.34
2022-09-06T12:09:28.936Z,101523.69
2022-09-06T12:12:48.227Z,101519.00
2022-09-06T12:15:46.780Z,101532.56
2022-09-06T12:19:01.158Z,101522.84
2022-09-06T12:21:52.166Z,101517.84
2022-09-06T12:24:56.583Z,101517.22
2022-09-06T12:27:54.114Z,101516.59
2022-09-06T12:30:43.803Z,101515.19
2022-09-06T12:33:33.145Z,101500.50
2022-09-06T12:36:23.777Z,101508.28
2022-09-06T12:39:13.190Z,101500.72
2022-09-06T12:42:03.094Z,101499.22
2022-09-06T12:44:52.273Z,101494.59
2022-09-06T12:47:41.223Z,101493.81
2022-09-06T12:50:31.637Z,101494.91
2022-09-06T12:53:24.673Z,101489.50
2022-09-06T12:56:13.561Z,101488.09
2022-09-06T12:59:17.692Z,101485.41
2022-09-06T13:02:09.529Z,101491.13
2022-09-06T13:05:05.500Z,101483.91
2022-09-06T13:07:54.423Z,101480.22
2022-09-06T13:10:46.045Z,101480.22
2022-09-06T13:13:32.748Z,101474.81
2022-09-06T13:16:22.443Z,101473.97
2022-09-06T13:19:14.913Z,101471.38
2022-09-06T13:22:03.970Z,101472.03
2022-09-06T13:24:50.754Z,101464.47
2022-09-06T13:27:38.682Z,101467.38
2022-09-06T13:30:34.634Z,101464.16
2022-09-06T13:33:25.569Z,101462.94
2022-09-06T13:36:23.992Z,101467.25
2022-09-06T13:39:12.508Z,101460.34
2022-09-06T13:42:03.235Z,101453.22
2022-09-06T13:44:52.115Z,101447.94
2022-09-06T13:47:38.829Z,101448.16
2022-09-06T13:50:27.865Z,101453.03
2022-09-06T13:53:20.497Z,101446.75
2022-09-06T13:56:08.885Z,101449.56
2022-09-06T13:58:55.450Z,101443.31
2022-09-06T14:01:45.844Z,101438.66
2022-09-06T14:04:33.066Z,101443.75
2022-09-06T14:07:19.408Z,101434.03
2022-09-06T14:10:06.927Z,101433.59
2022-09-06T14:12:55.038Z,101423.13
2022-09-06T14:15:41.864Z,101424.16
2022-09-06T14:18:30.078Z,101418.75
2022-09-06T14:21:17.806Z,101420.81
2022-09-06T14:24:05.108Z,101404.63
2022-09-06T14:26:52.121Z,101421.44
2022-09-06T14:29:39.466Z,101424.47
2022-09-06T14:32:26.924Z,101416.81
2022-09-06T14:35:14.967Z,101425.13
2022-09-06T14:38:01.833Z,101423.72
2022-09-06T14:40:48.484Z,101422.53
2022-09-06T14:43:36.050Z,101420.38
2022-09-06T14:46:24.826Z,101406.19
2022-09-06T14:49:11.742Z,101416.06
2022-09-06T14:51:59.626Z,101418.88
2022-09-06T14:54:46.529Z,101415.63
2022-09-06T14:57:33.211Z,101418.31
2022-09-06T15:00:20.123Z,101419.28
2022-09-06T15:03:06.828Z,101412.38
2022-09-06T15:05:53.529Z,101410.56
2022-09-06T15:08:41.812Z,101413.91
2022-09-06T15:11:30.365Z,101402.88
2022-09-06T15:14:18.960Z,101397.16
2022-09-06T15:17:08.908Z,101396.88
2022-09-06T15:19:56.392Z,101391.19
2022-09-06T15:22:43.157Z,101404.03
2022-09-06T15:25:32.218Z,101402.41
2022-09-06T15:28:19.575Z,101383.09
2022-09-06T15:31:06.969Z,101409.41
2022-09-06T15:33:53.987Z,101402.50
2022-09-06T15:36:40.813Z,101399.91
2022-09-06T15:39:27.465Z,101397.88
2022-09-06T15:42:15.620Z,101389.56
2022-09-06T15:45:02.730Z,101388.47
2022-09-06T15:47:49.166Z,101380.94
2022-09-06T15:50:50.827Z,101384.16
2022-09-06T15:53:39.075Z,101383.63
2022-09-06T15:56:25.882Z,101377.97
2022-09-06T15:59:14.247Z,101376.84
2022-09-06T16:02:01.007Z,101377.22
2022-09-06T16:04:48.074Z,101375.72
2022-09-06T16:07:34.580Z,101371.38
2022-09-06T16:10:21.511Z,101374.41
2022-09-06T16:13:08.102Z,101381.75
2022-09-06T16:16:00.571Z,101370.75
2022-09-06T16:18:48.293Z,101371.81
2022-09-06T16:21:35.794Z,101364.88
2022-09-06T16:24:23.669Z,101364.88
2022-09-06T16:27:10.136Z,101362.19
2022-09-06T16:29:56.850Z,101364.13
2022-09-06T16:32:45.039Z,101365.97
2022-09-06T16:35:31.848Z,101365.72
2022-09-06T16:38:18.730Z,101365.81
2022-09-06T16:41:12.031Z,101367.91
2022-09-06T16:44:00.047Z,101363.47
2022-09-06T16:46:48.542Z,101361.44
2022-09-06T16:49:36.398Z,101354.56
2022-09-06T16:52:22.902Z,101344.00
2022-09-06T16:55:09.860Z,101351.63
2022-09-06T16:57:56.655Z,101347.72
2022-09-06T17:00:45.021Z,101349.00
2022-09-06T17:03:31.523Z,101350.00
2022-09-06T17:06:20.468Z,101348.75
2022-09-06T17:09:07.294Z,101346.72
2022-09-06T17:11:53.874Z,101348.38
2022-09-06T17:14:40.757Z,101353.81
2022-09-06T17:17:27.826Z,101351.03
2022-09-06T17:20:15.863Z,101351.38
2022-09-06T17:23:03.952Z,101345.69
2022-09-06T17:25:51.343Z,101344.81
2022-09-06T17:28:40.727Z,101344.75
2022-09-06T17:31:27.541Z,101344.31
2022-09-06T17:34:15.091Z,101343.91
2022-09-06T17:37:02.052Z,101350.56
2022-09-06T17:39:50.330Z,101345.78
2022-09-06T17:42:37.944Z,101352.44
2022-09-06T17:45:24.834Z,101345.13
2022-09-06T17:48:11.750Z,101344.75
2022-09-06T17:51:06.997Z,101342.06
2022-09-06T17:53:53.956Z,101342.63
2022-09-06T17:56:42.098Z,101340.88
2022-09-06T17:59:34.240Z,101334.25
2022-09-06T18:02:22.026Z,101339.91
2022-09-06T18:05:09.645Z,101337.72
2022-09-06T18:07:55.896Z,101351.66
2022-09-06T18:10:43.607Z,101348.38
2022-09-06T18:13:32.121Z,101349.88
2022-09-06T18:16:18.922Z,101356.69
2022-09-06T18:19:07.377Z,101356.28
2022-09-06T18:21:54.310Z,101358.34
2022-09-06T18:24:40.920Z,101359.28
2022-09-06T18:27:28.312Z,101368.25
2022-09-06T18:30:17.087Z,101365.25
2022-09-06T18:33:04.311Z,101364.91
2022-09-06T18:35:51.282Z,101364.94
2022-09-06T18:38:39.738Z,101374.66
2022-09-06T18:41:43.730Z,101374.81
2022-09-06T18:44:32.576Z,101380.88
2022-09-06T18:47:22.505Z,101376.28
2022-09-06T18:50:10.029Z,101375.59
2022-09-06T18:52:56.902Z,101387.53
2022-09-06T18:55:43.968Z,101382.66
2022-09-06T18:58:31.135Z,101382.81
2022-09-06T19:01:20.194Z,101380.13
2022-09-06T19:04:08.810Z,101380.22
2022-09-06T19:06:55.260Z,101381.16
2022-09-06T19:09:42.007Z,101377.63
2022-09-06T19:12:28.714Z,101373.03
2022-09-06T19:15:15.618Z,101371.22
2022-09-06T19:18:03.123Z,101372.25
2022-09-06T19:20:58.990Z,101364.28
2022-09-06T19:23:48.229Z,101372.16
2022-09-06T19:26:36.628Z,101374.84
2022-09-06T19:29:23.365Z,101363.09
2022-09-06T19:32:10.260Z,101358.50
2022-09-06T19:34:57.026Z,101364.81
2022-09-06T19:37:45.235Z,101355.91
2022-09-06T19:40:32.175Z,101357.88
2022-09-06T19:43:19.074Z,101356.69
2022-09-06T19:46:06.950Z,101356.78
2022-09-06T19:48:56.286Z,101357.03
2022-09-06T19:51:43.953Z,101348.03
2022-09-06T19:54:31.777Z,101349.97
2022-09-06T19:57:18.376Z,101349.97
2022-09-06T20:00:05.910Z,101347.78
2022-09-06T20:02:58.365Z,101352.28
2022-09-06T20:05:46.066Z,101347.25
2022-09-06T20:08:32.948Z,101345.59
2022-09-06T20:11:22.759Z,101345.94
2022-09-06T20:14:10.097Z,101351.31
2022-09-06T20:17:06.539Z,101341.28
2022-09-06T20:20:04.322Z,101342.56
2022-09-06T20:22:51.157Z,101336.41
2022-09-06T20:25:38.214Z,101348.34
2022-09-06T20:28:26.457Z,101340.53
2022-09-06T20:31:15.604Z,101339.88
2022-09-06T20:34:04.372Z,101332.78
2022-09-06T20:36:50.990Z,101339.25
2022-09-06T20:39:37.762Z,101334.22
2022-09-06T20:42:24.579Z,101328.16
2022-09-06T20:45:13.055Z,101319.50
2022-09-06T20:47:59.586Z,101323.59
2022-09-06T20:50:46.810Z,101322.19
2022-09-06T20:53:33.814Z,101322.19
2022-09-06T20:56:23.052Z,101309.06
2022-09-06T20:59:11.866Z,101315.44
2022-09-06T21:02:00.791Z,101305.69
2022-09-06T21:04:47.461Z,101311.19
2022-09-06T21:07:34.332Z,101305.91
2022-09-06T21:10:20.735Z,101310.50
2022-09-06T21:13:07.564Z,101302.47
2022-09-06T21:15:54.546Z,101310.63
2022-09-06T21:18:43.548Z,101302.47
2022-09-06T21:21:31.465Z,101308.34
2022-09-06T21:24:18.072Z,101307.00
2022-09-06T21:27:04.930Z,101302.28
2022-09-06T21:29:51.833Z,101294.75
2022-09-06T21:32:38.573Z,101285.06
2022-09-06T21:35:26.777Z,101285.00
2022-09-06T21:38:13.642Z,101284.91
2022-09-06T21:41:00.700Z,101274.13
2022-09-06T21:43:52.730Z,101282.59
2022-09-06T21:46:40.471Z,101285.13
2022-09-06T21:49:26.894Z,101287.56
2022-09-06T21:52:15.222Z,101285.66
2022-09-06T21:55:01.877Z,101283.22
2022-09-06T21:57:48.794Z,101288.50
2022-09-06T22:00:37.358Z,101278.56
2022-09-06T22:03:24.618Z,101273.59
2022-09-06T22:06:12.861Z,101281.56
2022-09-06T22:09:02.277Z,101282.44
2022-09-06T22:11:49.147Z,101268.78
2022-09-06T22:14:35.898Z,101270.25
2022-09-06T22:17:22.649Z,101266.59
2022-09-06T22:20:11.996Z,101244.41
2022-09-06T22:22:58.825Z,101252.34
2022-09-06T22:25:46.820Z,101255.09
2022-09-06T22:28:34.041Z,101260.47
2022-09-06T22:31:20.937Z,101253.28
2022-09-06T22:34:08.060Z,101254.56
2022-09-06T22:36:54.675Z,101256.59
2022-09-06T22:39:42.342Z,101250.56
2022-09-06T22:42:30.144Z,101251.41
2022-09-06T22:45:17.026Z,101246.06
2022-09-06T22:48:04.227Z,101248.94
2022-09-06T22:50:51.033Z,101238.81
2022-09-06T22:53:38.747Z,101240.56
2022-09-06T22:56:25.596Z,101228.81
2022-09-06T22:59:13.470Z,101235.53
2022-09-06T23:02:00.254Z,101236.38
2022-09-06T23:04:47.227Z,101238.97
2022-09-06T23:07:34.409Z,101232.94
2022-09-06T23:10:21.170Z,101224.06
2022-09-06T23:13:07.930Z,101221.19
2022-09-06T23:15:55.963Z,101221.19
2022-09-06T23:18:42.723Z,101216.88
2022-09-06T23:21:29.516Z,101218.22
2022-09-06T23:24:16.508Z,101231.31
2022-09-06T23:27:04.866Z,101240.28
2022-09-06T23:29:51.777Z,101229.72
2022-09-06T23:32:42.013Z,101239.59
2022-09-06T23:35:29.094Z,101242.13
2022-09-06T23:38:17.685Z,101235.59
2022-09-06T23:41:06.660Z,101229.47
2022-09-06T23:43:53.991Z,101228.59
2022-09-06T23:46:40.793Z,101219.56
2022-09-06T23:49:29.177Z,101216.25
2022-09-06T23:52:15.784Z,101207.66
2022-09-06T23:55:04.612Z,101212.56
2022-09-06T23:57:51.428Z,101204.06
